Sagamore, MA (02561)

12:33 PM EDT on October 31, 2014 (GMT -0400)
Bournedale | Change Station
CLOSE
Current Station
Personal Weather Station
Location: Bourne, MA
Elevation: 105 ft
Nearby Weather Stations

Elev 105 ft 41.78 °N, 70.58 °W | Updated 4 minutes ago

Overcast
Overcast
54.7 °F
Feels Like 54.7 °F
N
5.1
Wind Variable Wind from NE
Gusts 6.9 mph

Today
High -- | Low -- °F
--% Chance of Precip.
Yesterday
High -- | Low -- °F
Precip. -- in
7:13 AM 5:37 PM
First Quarter, 56% visible
Pressure 29.99 in
Visibility 10.0 miles
Clouds Few 2300 ft
Overcast 4600 ft
Dew Point 47 °F
Humidity 76%
Rainfall 0.00 in
Snow Depth Not available.
UV 1 out of 12
Pollen .50 out of 12
Air Quality Not available.
Flu Activity Not available.
METAR KFMH 311615Z AUTO 05011KT 10SM FEW023 OVC046 12/07 A2999 RMK AO2

More Conditions Fewer Conditions

Pressure 29.99 in
Visibility 10.0 miles
Clouds Few 2300 ft
Overcast 4600 ft
Dew Point 47 °F
Humidity 76%
Rainfall 0.00 in
Snow Depth Not available.
UV 1 out of 12
Pollen .50 out of 12
Air Quality Not available.
Flu Activity Not available.
METAR KFMH 311615Z AUTO 05011KT 10SM FEW023 OVC046 12/07 A2999 RMK AO2

More Conditions Fewer Conditions

10-Day Weather Forecast

Almanac

Astronomy

Oct. 31, 2014 Rise Set
Actual Time
Civil Twilight
Nautical Twilight
Astronomical Twilight
Moon
Length of Visible Light
Length of Day
Tomorrow will be .
, % of the Moon is Illuminated

Today's Extremes

State Highs State Lows

Community

WunderPhotos

Upload Photos

1,766,656 photos uploaded!

WunderBlogs® & News

Nearby

Air Quality

  Air Quality AQ Index Pollutant
Not available.

Snow Depth

Station Depth Elevation

Earthquake Activity

City Distance Mag. Time & Date
Minimum magnitude displayed is 2.5.

Coastal Water Temperatures

Place Temperature

Nearby Weather Stations